sensor_id;sensor_type;location;lat;lon;timestamp;P1;durP1;ratioP1;P2;durP2;ratioP2
36241;SDS011;22283;42.748;12.732;2023-09-30T00:04:42;9.50;;;7.63;;
36241;SDS011;22283;42.748;12.732;2023-09-30T00:09:43;10.23;;;8.13;;
36241;SDS011;22283;42.748;12.732;2023-09-30T00:14:43;15.33;;;8.87;;
36241;SDS011;22283;42.748;12.732;2023-09-30T00:19:44;12.90;;;9.63;;
36241;SDS011;22283;42.748;12.732;2023-09-30T00:24:45;13.53;;;9.13;;
36241;SDS011;22283;42.748;12.732;2023-09-30T00:29:45;12.53;;;9.17;;
36241;SDS011;22283;42.748;12.732;2023-09-30T00:34:46;14.77;;;9.60;;
36241;SDS011;22283;42.748;12.732;2023-09-30T00:39:46;12.87;;;9.97;;
36241;SDS011;22283;42.748;12.732;2023-09-30T00:44:47;15.17;;;8.47;;
36241;SDS011;22283;42.748;12.732;2023-09-30T00:49:49;12.20;;;9.33;;
36241;SDS011;22283;42.748;12.732;2023-09-30T00:54:50;13.38;;;9.57;;
36241;SDS011;22283;42.748;12.732;2023-09-30T00:59:53;15.07;;;9.10;;
36241;SDS011;22283;42.748;12.732;2023-09-30T01:04:55;13.75;;;9.73;;
36241;SDS011;22283;42.748;12.732;2023-09-30T01:09:55;15.88;;;10.00;;
36241;SDS011;22283;42.748;12.732;2023-09-30T01:14:57;12.57;;;9.67;;
36241;SDS011;22283;42.748;12.732;2023-09-30T01:19:59;14.80;;;9.55;;
36241;SDS011;22283;42.748;12.732;2023-09-30T01:25:01;11.18;;;9.02;;
36241;SDS011;22283;42.748;12.732;2023-09-30T01:30:02;16.27;;;9.00;;
36241;SDS011;22283;42.748;12.732;2023-09-30T01:35:02;14.73;;;10.23;;
36241;SDS011;22283;42.748;12.732;2023-09-30T01:40:03;16.87;;;9.47;;
36241;SDS011;22283;42.748;12.732;2023-09-30T01:45:08;22.10;;;10.10;;
36241;SDS011;22283;42.748;12.732;2023-09-30T01:50:09;15.65;;;9.95;;
36241;SDS011;22283;42.748;12.732;2023-09-30T01:55:10;15.13;;;10.02;;
36241;SDS011;22283;42.748;12.732;2023-09-30T02:00:11;24.60;;;10.53;;
36241;SDS011;22283;42.748;12.732;2023-09-30T02:05:16;12.75;;;9.90;;
36241;SDS011;22283;42.748;12.732;2023-09-30T02:10:17;20.20;;;10.60;;
36241;SDS011;22283;42.748;12.732;2023-09-30T02:15:18;18.65;;;11.00;;
36241;SDS011;22283;42.748;12.732;2023-09-30T02:20:19;17.70;;;10.30;;
36241;SDS011;22283;42.748;12.732;2023-09-30T02:25:22;17.77;;;10.63;;
36241;SDS011;22283;42.748;12.732;2023-09-30T02:30:24;13.13;;;10.52;;
36241;SDS011;22283;42.748;12.732;2023-09-30T02:35:26;18.05;;;10.93;;
36241;SDS011;22283;42.748;12.732;2023-09-30T02:40:27;15.27;;;9.33;;
36241;SDS011;22283;42.748;12.732;2023-09-30T02:45:27;12.65;;;9.85;;
36241;SDS011;22283;42.748;12.732;2023-09-30T02:50:28;17.23;;;10.73;;
36241;SDS011;22283;42.748;12.732;2023-09-30T02:55:29;12.67;;;9.63;;
36241;SDS011;22283;42.748;12.732;2023-09-30T03:00:29;12.90;;;9.50;;
36241;SDS011;22283;42.748;12.732;2023-09-30T03:05:33;16.33;;;10.35;;
36241;SDS011;22283;42.748;12.732;2023-09-30T03:10:33;13.20;;;10.00;;
36241;SDS011;22283;42.748;12.732;2023-09-30T03:15:37;14.67;;;10.37;;
36241;SDS011;22283;42.748;12.732;2023-09-30T03:20:39;13.57;;;10.60;;
36241;SDS011;22283;42.748;12.732;2023-09-30T03:25:40;17.77;;;11.45;;
36241;SDS011;22283;42.748;12.732;2023-09-30T03:30:42;17.40;;;10.80;;
36241;SDS011;22283;42.748;12.732;2023-09-30T03:35:43;14.43;;;10.70;;
36241;SDS011;22283;42.748;12.732;2023-09-30T03:40:44;14.68;;;11.10;;
36241;SDS011;22283;42.748;12.732;2023-09-30T03:45:47;16.10;;;11.20;;
36241;SDS011;22283;42.748;12.732;2023-09-30T03:50:48;20.70;;;12.43;;
36241;SDS011;22283;42.748;12.732;2023-09-30T03:55:49;17.60;;;12.67;;
36241;SDS011;22283;42.748;12.732;2023-09-30T04:00:50;19.10;;;11.77;;
36241;SDS011;22283;42.748;12.732;2023-09-30T04:05:51;17.00;;;12.35;;
36241;SDS011;22283;42.748;12.732;2023-09-30T04:10:53;26.92;;;13.20;;
36241;SDS011;22283;42.748;12.732;2023-09-30T04:15:53;26.93;;;13.00;;
36241;SDS011;22283;42.748;12.732;2023-09-30T04:20:54;19.60;;;12.97;;
36241;SDS011;22283;42.748;12.732;2023-09-30T04:25:55;20.87;;;13.17;;
36241;SDS011;22283;42.748;12.732;2023-09-30T04:30:56;23.43;;;13.07;;
36241;SDS011;22283;42.748;12.732;2023-09-30T04:35:56;19.50;;;13.77;;
36241;SDS011;22283;42.748;12.732;2023-09-30T04:40:57;20.10;;;14.53;;
36241;SDS011;22283;42.748;12.732;2023-09-30T04:45:58;20.33;;;13.07;;
36241;SDS011;22283;42.748;12.732;2023-09-30T04:50:59;17.20;;;13.67;;
36241;SDS011;22283;42.748;12.732;2023-09-30T04:56:00;21.67;;;15.00;;
36241;SDS011;22283;42.748;12.732;2023-09-30T05:01:01;24.83;;;13.52;;
36241;SDS011;22283;42.748;12.732;2023-09-30T05:06:02;25.50;;;13.17;;
36241;SDS011;22283;42.748;12.732;2023-09-30T05:11:03;20.58;;;13.88;;
36241;SDS011;22283;42.748;12.732;2023-09-30T05:16:05;21.95;;;14.98;;
36241;SDS011;22283;42.748;12.732;2023-09-30T05:21:07;24.00;;;15.98;;
36241;SDS011;22283;42.748;12.732;2023-09-30T05:26:08;20.53;;;12.83;;
36241;SDS011;22283;42.748;12.732;2023-09-30T05:31:08;21.87;;;11.80;;
36241;SDS011;22283;42.748;12.732;2023-09-30T05:36:09;13.87;;;10.57;;
36241;SDS011;22283;42.748;12.732;2023-09-30T05:41:09;20.03;;;11.40;;
36241;SDS011;22283;42.748;12.732;2023-09-30T05:46:11;17.40;;;11.70;;
36241;SDS011;22283;42.748;12.732;2023-09-30T05:51:12;28.20;;;11.70;;
36241;SDS011;22283;42.748;12.732;2023-09-30T05:56:15;27.40;;;12.95;;
36241;SDS011;22283;42.748;12.732;2023-09-30T06:01:16;19.27;;;11.27;;
36241;SDS011;22283;42.748;12.732;2023-09-30T06:06:19;23.05;;;12.38;;
36241;SDS011;22283;42.748;12.732;2023-09-30T06:11:20;15.13;;;9.67;;
36241;SDS011;22283;42.748;12.732;2023-09-30T06:16:24;15.38;;;10.00;;
36241;SDS011;22283;42.748;12.732;2023-09-30T06:21:26;14.68;;;9.07;;
36241;SDS011;22283;42.748;12.732;2023-09-30T06:26:29;20.27;;;10.18;;
36241;SDS011;22283;42.748;12.732;2023-09-30T06:31:30;14.37;;;8.67;;
36241;SDS011;22283;42.748;12.732;2023-09-30T06:36:30;16.70;;;9.77;;
36241;SDS011;22283;42.748;12.732;2023-09-30T06:41:32;17.83;;;10.73;;
36241;SDS011;22283;42.748;12.732;2023-09-30T06:46:34;11.95;;;10.07;;
36241;SDS011;22283;42.748;12.732;2023-09-30T06:51:35;36.33;;;15.68;;
36241;SDS011;22283;42.748;12.732;2023-09-30T06:56:36;33.97;;;16.93;;
36241;SDS011;22283;42.748;12.732;2023-09-30T07:01:36;25.77;;;14.37;;
36241;SDS011;22283;42.748;12.732;2023-09-30T07:06:37;31.52;;;12.05;;
36241;SDS011;22283;42.748;12.732;2023-09-30T07:11:38;28.65;;;11.52;;
36241;SDS011;22283;42.748;12.732;2023-09-30T07:16:39;21.20;;;10.52;;
36241;SDS011;22283;42.748;12.732;2023-09-30T07:21:40;25.88;;;9.77;;
36241;SDS011;22283;42.748;12.732;2023-09-30T07:26:41;13.38;;;8.82;;
36241;SDS011;22283;42.748;12.732;2023-09-30T07:31:42;16.67;;;9.53;;
36241;SDS011;22283;42.748;12.732;2023-09-30T07:36:42;20.97;;;11.77;;
36241;SDS011;22283;42.748;12.732;2023-09-30T07:41:43;22.53;;;11.40;;
36241;SDS011;22283;42.748;12.732;2023-09-30T07:46:44;20.63;;;10.97;;
36241;SDS011;22283;42.748;12.732;2023-09-30T07:51:44;24.20;;;9.73;;
36241;SDS011;22283;42.748;12.732;2023-09-30T07:56:46;22.30;;;10.27;;
36241;SDS011;22283;42.748;12.732;2023-09-30T08:01:47;18.83;;;10.70;;
36241;SDS011;22283;42.748;12.732;2023-09-30T08:06:48;19.25;;;11.05;;
36241;SDS011;22283;42.748;12.732;2023-09-30T08:11:50;17.33;;;11.32;;
36241;SDS011;22283;42.748;12.732;2023-09-30T08:16:54;20.20;;;11.10;;
36241;SDS011;22283;42.748;12.732;2023-09-30T08:21:54;20.42;;;10.00;;
36241;SDS011;22283;42.748;12.732;2023-09-30T08:26:55;18.83;;;9.43;;
36241;SDS011;22283;42.748;12.732;2023-09-30T08:31:56;15.77;;;9.98;;
36241;SDS011;22283;42.748;12.732;2023-09-30T08:36:57;20.80;;;9.73;;
36241;SDS011;22283;42.748;12.732;2023-09-30T08:41:58;15.07;;;8.90;;
36241;SDS011;22283;42.748;12.732;2023-09-30T08:47:02;13.25;;;7.88;;
36241;SDS011;22283;42.748;12.732;2023-09-30T08:52:04;10.93;;;7.80;;
36241;SDS011;22283;42.748;12.732;2023-09-30T08:57:07;15.35;;;7.60;;
36241;SDS011;22283;42.748;12.732;2023-09-30T09:02:10;14.82;;;9.30;;
36241;SDS011;22283;42.748;12.732;2023-09-30T09:07:10;21.70;;;8.70;;
36241;SDS011;22283;42.748;12.732;2023-09-30T09:12:20;19.52;;;8.75;;
36241;SDS011;22283;42.748;12.732;2023-09-30T09:17:21;17.35;;;8.35;;
36241;SDS011;22283;42.748;12.732;2023-09-30T09:22:23;13.25;;;7.82;;
36241;SDS011;22283;42.748;12.732;2023-09-30T09:27:23;13.50;;;8.85;;
36241;SDS011;22283;42.748;12.732;2023-09-30T09:37:25;18.17;;;8.27;;
36241;SDS011;22283;42.748;12.732;2023-09-30T09:47:26;10.18;;;6.38;;
36241;SDS011;22283;42.748;12.732;2023-09-30T09:52:27;15.88;;;6.85;;
36241;SDS011;22283;42.748;12.732;2023-09-30T09:57:29;16.33;;;6.97;;
36241;SDS011;22283;42.748;12.732;2023-09-30T10:02:31;11.95;;;6.13;;
36241;SDS011;22283;42.748;12.732;2023-09-30T10:07:34;16.13;;;7.47;;
36241;SDS011;22283;42.748;12.732;2023-09-30T10:12:38;13.98;;;7.03;;
36241;SDS011;22283;42.748;12.732;2023-09-30T10:17:58;11.52;;;6.50;;
36241;SDS011;22283;42.748;12.732;2023-09-30T10:34:12;11.82;;;7.28;;
36241;SDS011;22283;42.748;12.732;2023-09-30T10:39:00;10.15;;;6.35;;
36241;SDS011;22283;42.748;12.732;2023-09-30T10:49:30;14.55;;;7.43;;
36241;SDS011;22283;42.748;12.732;2023-09-30T10:54:34;13.57;;;6.60;;
36241;SDS011;22283;42.748;12.732;2023-09-30T10:59:35;10.60;;;5.55;;
36241;SDS011;22283;42.748;12.732;2023-09-30T11:04:47;9.48;;;5.68;;
36241;SDS011;22283;42.748;12.732;2023-09-30T11:09:48;9.35;;;5.47;;
36241;SDS011;22283;42.748;12.732;2023-09-30T11:14:58;12.05;;;5.70;;
36241;SDS011;22283;42.748;12.732;2023-09-30T11:19:59;11.93;;;5.70;;
36241;SDS011;22283;42.748;12.732;2023-09-30T11:25:00;11.05;;;5.22;;
36241;SDS011;22283;42.748;12.732;2023-09-30T11:30:02;12.48;;;5.43;;
36241;SDS011;22283;42.748;12.732;2023-09-30T11:35:03;11.18;;;5.55;;
36241;SDS011;22283;42.748;12.732;2023-09-30T11:40:13;9.32;;;5.20;;
36241;SDS011;22283;42.748;12.732;2023-09-30T11:45:20;14.18;;;5.35;;
36241;SDS011;22283;42.748;12.732;2023-09-30T11:50:24;10.25;;;5.35;;
36241;SDS011;22283;42.748;12.732;2023-09-30T11:55:25;7.53;;;5.03;;
36241;SDS011;22283;42.748;12.732;2023-09-30T12:00:27;16.13;;;5.75;;
36241;SDS011;22283;42.748;12.732;2023-09-30T12:05:29;12.20;;;4.80;;
36241;SDS011;22283;42.748;12.732;2023-09-30T12:10:30;13.98;;;6.13;;
36241;SDS011;22283;42.748;12.732;2023-09-30T12:15:31;10.07;;;5.50;;
36241;SDS011;22283;42.748;12.732;2023-09-30T12:20:32;10.43;;;4.80;;
36241;SDS011;22283;42.748;12.732;2023-09-30T12:25:33;9.35;;;5.32;;
36241;SDS011;22283;42.748;12.732;2023-09-30T12:30:34;9.35;;;5.03;;
36241;SDS011;22283;42.748;12.732;2023-09-30T12:35:35;10.57;;;5.50;;
36241;SDS011;22283;42.748;12.732;2023-09-30T12:40:35;8.98;;;4.30;;
36241;SDS011;22283;42.748;12.732;2023-09-30T12:45:36;13.80;;;5.07;;
36241;SDS011;22283;42.748;12.732;2023-09-30T12:50:38;7.78;;;4.85;;
36241;SDS011;22283;42.748;12.732;2023-09-30T12:55:39;10.77;;;4.68;;
36241;SDS011;22283;42.748;12.732;2023-09-30T13:00:40;9.38;;;5.07;;
36241;SDS011;22283;42.748;12.732;2023-09-30T13:05:40;11.80;;;4.75;;
36241;SDS011;22283;42.748;12.732;2023-09-30T13:10:41;6.22;;;4.50;;
36241;SDS011;22283;42.748;12.732;2023-09-30T13:15:42;6.13;;;4.63;;
36241;SDS011;22283;42.748;12.732;2023-09-30T13:20:43;8.73;;;4.03;;
36241;SDS011;22283;42.748;12.732;2023-09-30T13:25:43;6.90;;;4.00;;
36241;SDS011;22283;42.748;12.732;2023-09-30T13:30:44;9.85;;;3.53;;
36241;SDS011;22283;42.748;12.732;2023-09-30T13:35:46;9.85;;;3.55;;
36241;SDS011;22283;42.748;12.732;2023-09-30T13:40:46;9.40;;;4.25;;
36241;SDS011;22283;42.748;12.732;2023-09-30T13:45:47;8.85;;;3.95;;
36241;SDS011;22283;42.748;12.732;2023-09-30T13:50:48;6.03;;;3.25;;
36241;SDS011;22283;42.748;12.732;2023-09-30T13:55:49;8.07;;;3.80;;
36241;SDS011;22283;42.748;12.732;2023-09-30T14:00:50;7.15;;;3.28;;
36241;SDS011;22283;42.748;12.732;2023-09-30T14:05:54;9.65;;;4.25;;
36241;SDS011;22283;42.748;12.732;2023-09-30T14:10:55;4.75;;;3.47;;
36241;SDS011;22283;42.748;12.732;2023-09-30T14:15:56;14.13;;;3.60;;
36241;SDS011;22283;42.748;12.732;2023-09-30T14:20:57;7.90;;;4.15;;
36241;SDS011;22283;42.748;12.732;2023-09-30T14:25:57;14.38;;;3.58;;
36241;SDS011;22283;42.748;12.732;2023-09-30T14:31:02;10.18;;;3.42;;
36241;SDS011;22283;42.748;12.732;2023-09-30T14:36:04;5.57;;;3.40;;
36241;SDS011;22283;42.748;12.732;2023-09-30T14:41:07;9.65;;;3.00;;
36241;SDS011;22283;42.748;12.732;2023-09-30T14:46:08;7.03;;;3.40;;
36241;SDS011;22283;42.748;12.732;2023-09-30T14:51:09;8.25;;;3.50;;
36241;SDS011;22283;42.748;12.732;2023-09-30T14:56:16;8.55;;;3.92;;
36241;SDS011;22283;42.748;12.732;2023-09-30T15:01:18;8.85;;;3.55;;
36241;SDS011;22283;42.748;12.732;2023-09-30T15:06:20;6.80;;;3.53;;
36241;SDS011;22283;42.748;12.732;2023-09-30T15:11:24;9.98;;;3.65;;
36241;SDS011;22283;42.748;12.732;2023-09-30T15:16:25;6.05;;;2.75;;
36241;SDS011;22283;42.748;12.732;2023-09-30T15:21:26;7.25;;;3.30;;
36241;SDS011;22283;42.748;12.732;2023-09-30T15:26:27;10.85;;;4.10;;
36241;SDS011;22283;42.748;12.732;2023-09-30T15:31:28;8.27;;;3.60;;
36241;SDS011;22283;42.748;12.732;2023-09-30T15:36:30;9.48;;;3.60;;
36241;SDS011;22283;42.748;12.732;2023-09-30T15:41:31;10.60;;;4.18;;
36241;SDS011;22283;42.748;12.732;2023-09-30T15:46:32;21.17;;;5.00;;
36241;SDS011;22283;42.748;12.732;2023-09-30T15:51:33;13.48;;;4.20;;
36241;SDS011;22283;42.748;12.732;2023-09-30T15:56:34;12.63;;;4.25;;
36241;SDS011;22283;42.748;12.732;2023-09-30T16:01:34;17.13;;;3.90;;
36241;SDS011;22283;42.748;12.732;2023-09-30T16:06:35;8.30;;;3.90;;
36241;SDS011;22283;42.748;12.732;2023-09-30T16:11:35;9.77;;;3.70;;
36241;SDS011;22283;42.748;12.732;2023-09-30T16:21:37;10.27;;;3.85;;
36241;SDS011;22283;42.748;12.732;2023-09-30T16:31:38;10.40;;;3.63;;
36241;SDS011;22283;42.748;12.732;2023-09-30T16:36:39;12.73;;;3.72;;
36241;SDS011;22283;42.748;12.732;2023-09-30T16:46:40;13.48;;;3.90;;
36241;SDS011;22283;42.748;12.732;2023-09-30T16:51:41;7.88;;;3.60;;
36241;SDS011;22283;42.748;12.732;2023-09-30T16:56:41;8.88;;;4.32;;
36241;SDS011;22283;42.748;12.732;2023-09-30T17:01:42;10.85;;;4.30;;
36241;SDS011;22283;42.748;12.732;2023-09-30T17:06:43;11.65;;;4.10;;
36241;SDS011;22283;42.748;12.732;2023-09-30T17:11:44;12.05;;;4.55;;
36241;SDS011;22283;42.748;12.732;2023-09-30T17:16:44;6.63;;;4.78;;
36241;SDS011;22283;42.748;12.732;2023-09-30T17:21:45;8.57;;;4.05;;
36241;SDS011;22283;42.748;12.732;2023-09-30T17:26:46;7.93;;;3.67;;
36241;SDS011;22283;42.748;12.732;2023-09-30T17:31:47;14.43;;;3.50;;
36241;SDS011;22283;42.748;12.732;2023-09-30T17:36:47;17.38;;;4.43;;
36241;SDS011;22283;42.748;12.732;2023-09-30T17:46:49;7.22;;;4.05;;
36241;SDS011;22283;42.748;12.732;2023-09-30T17:51:50;22.10;;;4.75;;
36241;SDS011;22283;42.748;12.732;2023-09-30T17:56:51;15.90;;;5.10;;
36241;SDS011;22283;42.748;12.732;2023-09-30T18:01:51;12.67;;;4.60;;
36241;SDS011;22283;42.748;12.732;2023-09-30T18:06:52;14.50;;;4.13;;
36241;SDS011;22283;42.748;12.732;2023-09-30T18:11:53;14.60;;;4.90;;
36241;SDS011;22283;42.748;12.732;2023-09-30T18:16:54;10.95;;;3.80;;
36241;SDS011;22283;42.748;12.732;2023-09-30T18:21:55;8.45;;;4.55;;
36241;SDS011;22283;42.748;12.732;2023-09-30T18:26:55;9.57;;;4.10;;
36241;SDS011;22283;42.748;12.732;2023-09-30T18:31:56;18.40;;;5.73;;
36241;SDS011;22283;42.748;12.732;2023-09-30T18:36:57;16.35;;;4.47;;
36241;SDS011;22283;42.748;12.732;2023-09-30T18:41:58;13.53;;;4.63;;
36241;SDS011;22283;42.748;12.732;2023-09-30T18:46:59;11.33;;;5.83;;
36241;SDS011;22283;42.748;12.732;2023-09-30T18:51:59;15.43;;;5.05;;
36241;SDS011;22283;42.748;12.732;2023-09-30T18:57:00;7.22;;;4.15;;
36241;SDS011;22283;42.748;12.732;2023-09-30T19:02:01;7.97;;;3.92;;
36241;SDS011;22283;42.748;12.732;2023-09-30T19:07:03;8.65;;;4.47;;
36241;SDS011;22283;42.748;12.732;2023-09-30T19:12:05;6.68;;;4.05;;
36241;SDS011;22283;42.748;12.732;2023-09-30T19:17:06;8.63;;;5.22;;
36241;SDS011;22283;42.748;12.732;2023-09-30T19:22:07;7.63;;;4.07;;
36241;SDS011;22283;42.748;12.732;2023-09-30T19:27:07;10.83;;;4.90;;
36241;SDS011;22283;42.748;12.732;2023-09-30T19:32:08;12.47;;;5.13;;
36241;SDS011;22283;42.748;12.732;2023-09-30T19:37:09;6.82;;;4.72;;
36241;SDS011;22283;42.748;12.732;2023-09-30T19:42:10;7.83;;;4.53;;
36241;SDS011;22283;42.748;12.732;2023-09-30T19:47:11;12.88;;;4.38;;
36241;SDS011;22283;42.748;12.732;2023-09-30T19:52:11;7.10;;;4.47;;
36241;SDS011;22283;42.748;12.732;2023-09-30T19:57:12;7.60;;;4.10;;
36241;SDS011;22283;42.748;12.732;2023-09-30T20:02:12;7.67;;;4.97;;
36241;SDS011;22283;42.748;12.732;2023-09-30T20:07:16;10.25;;;4.93;;
36241;SDS011;22283;42.748;12.732;2023-09-30T20:12:17;14.33;;;4.47;;
36241;SDS011;22283;42.748;12.732;2023-09-30T20:17:18;7.68;;;4.97;;
36241;SDS011;22283;42.748;12.732;2023-09-30T20:22:18;13.80;;;4.10;;
36241;SDS011;22283;42.748;12.732;2023-09-30T20:27:19;13.80;;;4.20;;
36241;SDS011;22283;42.748;12.732;2023-09-30T20:32:20;10.57;;;3.90;;
36241;SDS011;22283;42.748;12.732;2023-09-30T20:37:20;7.80;;;4.33;;
36241;SDS011;22283;42.748;12.732;2023-09-30T20:42:21;5.93;;;4.40;;
36241;SDS011;22283;42.748;12.732;2023-09-30T20:47:22;6.18;;;4.50;;
36241;SDS011;22283;42.748;12.732;2023-09-30T20:57:24;6.78;;;3.85;;
36241;SDS011;22283;42.748;12.732;2023-09-30T21:02:24;13.07;;;4.37;;
36241;SDS011;22283;42.748;12.732;2023-09-30T21:07:25;8.50;;;4.10;;
36241;SDS011;22283;42.748;12.732;2023-09-30T21:12:26;14.25;;;4.10;;
36241;SDS011;22283;42.748;12.732;2023-09-30T21:17:26;11.53;;;4.17;;
36241;SDS011;22283;42.748;12.732;2023-09-30T21:22:28;14.90;;;4.05;;
36241;SDS011;22283;42.748;12.732;2023-09-30T21:27:29;12.37;;;3.97;;
36241;SDS011;22283;42.748;12.732;2023-09-30T21:32:30;11.40;;;3.63;;
36241;SDS011;22283;42.748;12.732;2023-09-30T21:37:30;6.00;;;4.27;;
36241;SDS011;22283;42.748;12.732;2023-09-30T21:42:34;6.90;;;3.25;;
36241;SDS011;22283;42.748;12.732;2023-09-30T21:47:35;11.73;;;4.18;;
36241;SDS011;22283;42.748;12.732;2023-09-30T21:52:35;10.30;;;3.57;;
36241;SDS011;22283;42.748;12.732;2023-09-30T21:57:36;7.10;;;3.63;;
36241;SDS011;22283;42.748;12.732;2023-09-30T22:02:37;9.00;;;4.07;;
36241;SDS011;22283;42.748;12.732;2023-09-30T22:07:39;9.70;;;4.20;;
36241;SDS011;22283;42.748;12.732;2023-09-30T22:12:39;6.93;;;4.30;;
36241;SDS011;22283;42.748;12.732;2023-09-30T22:17:40;11.77;;;3.63;;
36241;SDS011;22283;42.748;12.732;2023-09-30T22:22:41;8.05;;;3.50;;
36241;SDS011;22283;42.748;12.732;2023-09-30T22:27:42;7.85;;;3.58;;
36241;SDS011;22283;42.748;12.732;2023-09-30T22:32:43;10.82;;;3.83;;
36241;SDS011;22283;42.748;12.732;2023-09-30T22:37:44;8.27;;;3.63;;
36241;SDS011;22283;42.748;12.732;2023-09-30T22:42:45;6.00;;;3.80;;
36241;SDS011;22283;42.748;12.732;2023-09-30T22:47:49;10.60;;;4.20;;
36241;SDS011;22283;42.748;12.732;2023-09-30T22:52:51;10.55;;;3.92;;
36241;SDS011;22283;42.748;12.732;2023-09-30T22:57:52;7.15;;;3.80;;
36241;SDS011;22283;42.748;12.732;2023-09-30T23:02:56;8.05;;;3.90;;
36241;SDS011;22283;42.748;12.732;2023-09-30T23:07:57;8.95;;;4.45;;
36241;SDS011;22283;42.748;12.732;2023-09-30T23:12:58;11.23;;;5.00;;
36241;SDS011;22283;42.748;12.732;2023-09-30T23:17:59;5.65;;;3.20;;
36241;SDS011;22283;42.748;12.732;2023-09-30T23:23:00;8.60;;;4.33;;
36241;SDS011;22283;42.748;12.732;2023-09-30T23:28:00;7.13;;;3.73;;
36241;SDS011;22283;42.748;12.732;2023-09-30T23:33:01;7.70;;;3.80;;
36241;SDS011;22283;42.748;12.732;2023-09-30T23:38:03;7.93;;;4.35;;
36241;SDS011;22283;42.748;12.732;2023-09-30T23:43:04;7.05;;;4.43;;
36241;SDS011;22283;42.748;12.732;2023-09-30T23:48:06;7.47;;;4.10;;
36241;SDS011;22283;42.748;12.732;2023-09-30T23:53:07;9.05;;;4.60;;
